Time;durP1;ratioP1;P1;durP2;ratioP2;P2;SDS_P1;SDS_P2;PMS_P1;PMS_P2;Temp;Humidity;BMP_temperature;BMP_pressure;BME280_temperature;BME280_humidity;BME280_pressure;Samples;Min_cycle;Max_cycle;Signal;HPM_P1;HPM_P2
2021/07/31 00:01:08;;;;;;;0.40;0.30;;;;;;;17.93;91.48;99576.78;4974603;28;20474;-55
2021/07/31 00:03:35;;;;;;;0.40;0.20;;;;;;;17.64;92.95;99579.63;4973401;28;20446;-55
2021/07/31 00:06:03;;;;;;;1.10;1.00;;;;;;;17.53;93.51;99584.03;4974569;28;20474;-54
2021/07/31 00:08:30;;;;;;;0.40;0.20;;;;;;;17.48;93.66;99587.91;4974529;28;20470;-54
2021/07/31 00:10:57;;;;;;;0.40;0.20;;;;;;;17.51;93.57;99581.44;4971669;28;20489;-55
2021/07/31 00:13:25;;;;;;;0.40;0.20;;;;;;;17.54;93.90;99591.97;4964278;28;20450;-55
2021/07/31 00:15:51;;;;;;;0.40;0.20;;;;;;;17.45;94.58;99590.81;4966846;28;20466;-55
2021/07/31 00:18:18;;;;;;;0.60;0.60;;;;;;;17.22;97.31;99591.50;4974202;28;20532;-54
2021/07/31 00:20:45;;;;;;;0.40;0.20;;;;;;;17.48;95.90;99595.97;4974419;28;20482;-54
2021/07/31 00:23:12;;;;;;;1.33;1.07;;;;;;;17.48;95.34;99590.59;4974167;28;21030;-55
2021/07/31 00:25:38;;;;;;;0.40;0.30;;;;;;;17.54;94.04;99583.91;4974256;28;20505;-55
2021/07/31 00:28:07;;;;;;;0.40;0.20;;;;;;;17.61;93.57;99590.59;4974141;28;20509;-55
2021/07/31 00:30:34;;;;;;;0.40;0.20;;;;;;;17.52;94.09;99595.75;4974027;28;20921;-55
2021/07/31 00:33:00;;;;;;;0.40;0.20;;;;;;;17.34;94.77;99585.28;4973970;28;20486;-55
2021/07/31 00:35:27;;;;;;;0.60;0.60;;;;;;;17.44;94.61;99589.09;4973892;28;20451;-54
2021/07/31 00:37:53;;;;;;;0.40;0.20;;;;;;;17.48;94.11;99589.72;4974511;28;20529;-54
2021/07/31 00:40:20;;;;;;;0.40;0.20;;;;;;;17.50;93.99;99595.84;4972862;28;20447;-54
2021/07/31 00:42:46;;;;;;;0.40;0.20;;;;;;;17.44;94.10;99593.59;4970717;28;20452;-54
2021/07/31 00:45:13;;;;;;;0.40;0.20;;;;;;;17.37;93.50;99590.44;4971671;28;20511;-54
2021/07/31 00:47:42;;;;;;;0.40;0.20;;;;;;;17.40;93.49;99584.00;4973653;28;21042;-54
2021/07/31 00:50:09;;;;;;;0.50;0.40;;;;;;;17.16;93.48;99584.72;4973979;28;20493;-55
2021/07/31 00:52:38;;;;;;;1.80;1.80;;;;;;;17.18;93.61;99579.25;4974268;28;20474;-54
2021/07/31 00:55:06;;;;;;;0.40;0.20;;;;;;;16.98;95.16;99593.13;4968865;28;20451;-54
2021/07/31 00:57:35;;;;;;;0.40;0.20;;;;;;;17.13;92.86;99587.63;4971186;28;20474;-54
2021/07/31 01:00:03;;;;;;;0.40;0.20;;;;;;;17.05;93.68;99594.44;4973689;28;20514;-55
2021/07/31 01:02:30;;;;;;;0.40;0.20;;;;;;;17.05;93.90;99594.44;4974077;28;20454;-55
2021/07/31 01:04:56;;;;;;;0.50;0.40;;;;;;;17.10;93.36;99601.22;4973936;28;20464;-55
2021/07/31 01:07:24;;;;;;;0.40;0.20;;;;;;;16.92;93.92;99597.06;4973612;28;20474;-55
2021/07/31 01:09:50;;;;;;;0.40;0.20;;;;;;;16.95;93.54;99593.31;4948087;28;20458;-54
2021/07/31 01:12:17;;;;;;;0.60;0.60;;;;;;;16.93;93.60;99595.25;4969455;28;20948;-55
2021/07/31 01:14:44;;;;;;;0.40;0.20;;;;;;;16.85;93.53;99593.91;4947958;28;20454;-55
2021/07/31 01:17:12;;;;;;;0.40;0.30;;;;;;;16.93;93.27;99590.75;4973531;28;20476;-54
2021/07/31 01:19:39;;;;;;;0.40;0.30;;;;;;;16.86;92.91;99584.94;4973669;28;20454;-54
2021/07/31 01:22:06;;;;;;;0.40;0.20;;;;;;;16.93;92.90;99588.06;4973666;28;20830;-55
2021/07/31 01:24:33;;;;;;;0.40;0.40;;;;;;;16.82;93.38;99587.91;4973657;28;20501;-54
2021/07/31 01:27:00;;;;;;;0.40;0.20;;;;;;;16.73;93.43;99593.88;4977336;28;20525;-54
2021/07/31 01:29:27;;;;;;;0.40;0.20;;;;;;;16.75;93.67;99590.13;4977694;28;20458;-54
2021/07/31 01:31:53;;;;;;;0.40;0.20;;;;;;;16.68;93.61;99587.94;4971893;28;20494;-55
2021/07/31 01:34:20;;;;;;;0.40;0.20;;;;;;;16.85;92.86;99595.75;4977542;28;20533;-55
2021/07/31 01:36:47;;;;;;;0.40;0.20;;;;;;;16.58;93.23;99603.72;4977176;28;21058;-55
2021/07/31 01:39:14;;;;;;;0.50;0.50;;;;;;;16.66;93.20;99598.75;4974775;28;20453;-55
2021/07/31 01:41:41;;;;;;;1.57;0.50;;;;;;;16.50;93.43;99598.00;4977182;28;20447;-54
2021/07/31 01:44:08;;;;;;;0.40;0.20;;;;;;;16.41;93.33;99602.13;4970626;28;20455;-54
2021/07/31 01:46:35;;;;;;;0.40;0.20;;;;;;;16.51;93.55;99589.84;4972641;28;20466;-55
2021/07/31 01:49:02;;;;;;;0.40;0.20;;;;;;;16.71;92.23;99595.78;4977360;28;20446;-54
2021/07/31 01:51:28;;;;;;;0.40;0.20;;;;;;;16.87;91.16;99601.91;4965537;28;20939;-55
2021/07/31 01:53:55;;;;;;;0.40;0.20;;;;;;;17.13;89.55;99605.53;4977237;28;20454;-54
2021/07/31 01:56:21;;;;;;;0.40;0.20;;;;;;;17.19;89.01;99599.75;4972855;28;20550;-54
2021/07/31 01:58:48;;;;;;;0.40;0.20;;;;;;;17.33;87.39;99593.47;4977350;28;20454;-54
2021/07/31 02:01:16;;;;;;;0.40;0.20;;;;;;;17.33;86.57;99591.63;4977174;28;20453;-55
2021/07/31 02:03:42;;;;;;;0.40;0.20;;;;;;;17.34;86.62;99601.41;4977170;28;20837;-54
2021/07/31 02:06:09;;;;;;;0.40;0.20;;;;;;;17.50;85.72;99603.91;4967864;28;20462;-56
2021/07/31 02:08:36;;;;;;;0.40;0.20;;;;;;;17.54;84.92;99600.03;4977704;28;20474;-56
2021/07/31 02:11:02;;;;;;;0.40;0.20;;;;;;;17.39;85.58;99596.56;4977678;28;20494;-54
2021/07/31 02:13:29;;;;;;;0.40;0.20;;;;;;;17.34;85.10;99592.50;4977346;28;20505;-53
2021/07/31 02:15:56;;;;;;;0.40;0.20;;;;;;;17.35;85.52;99605.81;4976659;28;20504;-53
2021/07/31 02:18:22;;;;;;;0.40;0.20;;;;;;;17.41;84.69;99596.50;4976698;28;20475;-53
2021/07/31 02:20:49;;;;;;;0.40;0.20;;;;;;;17.26;84.75;99601.06;4976401;28;20967;-53
2021/07/31 02:23:15;;;;;;;0.40;0.20;;;;;;;17.30;84.49;99596.34;4976401;28;20889;-53
2021/07/31 02:25:42;;;;;;;0.40;0.20;;;;;;;17.35;85.38;99597.75;4970799;28;20482;-53
2021/07/31 02:28:09;;;;;;;0.40;0.20;;;;;;;17.33;86.79;99597.00;4976546;28;20528;-53
2021/07/31 02:30:35;;;;;;;0.60;0.60;;;;;;;16.95;87.59;99596.88;4976281;28;20493;-53
2021/07/31 02:33:02;;;;;;;0.50;0.43;;;;;;;16.96;87.25;99600.41;4976647;28;20951;-53
2021/07/31 02:35:33;;;;;;;0.40;0.20;;;;;;;16.68;89.11;99599.53;4975409;28;20458;-53
2021/07/31 02:38:01;;;;;;;0.40;0.20;;;;;;;16.58;90.15;99601.03;4975616;28;20546;-53
2021/07/31 02:40:29;;;;;;;0.40;0.20;;;;;;;16.39;91.33;99606.75;4976101;28;20461;-53
2021/07/31 02:42:56;;;;;;;0.40;0.20;;;;;;;16.24;92.30;99605.88;4976118;28;20960;-53
2021/07/31 02:45:22;;;;;;;0.40;0.20;;;;;;;16.09;92.84;99604.16;4970454;28;20451;-53
2021/07/31 02:47:50;;;;;;;0.40;0.20;;;;;;;16.02;93.43;99605.50;4968669;28;20474;-53
2021/07/31 02:50:17;;;;;;;0.40;0.20;;;;;;;15.71;94.07;99593.13;4975694;28;20675;-54
2021/07/31 02:52:43;;;;;;;0.40;0.20;;;;;;;15.87;93.49;99601.94;4976347;28;20450;-53
2021/07/31 02:55:10;;;;;;;0.40;0.20;;;;;;;15.66;94.08;99597.91;4975815;28;20455;-53
2021/07/31 02:57:37;;;;;;;0.40;0.20;;;;;;;15.57;94.57;99595.75;4972844;28;20935;-54
2021/07/31 03:00:05;;;;;;;0.40;0.20;;;;;;;15.45;94.93;99591.97;4975851;28;20478;-53
2021/07/31 03:02:32;;;;;;;0.40;0.20;;;;;;;15.62;94.62;99591.88;4975886;28;20455;-54
2021/07/31 03:04:59;;;;;;;0.40;0.20;;;;;;;15.41;94.91;99593.13;4962937;28;20458;-53
2021/07/31 03:07:26;;;;;;;0.40;0.20;;;;;;;15.33;95.82;99587.34;4969199;28;20474;-52
2021/07/31 03:09:52;;;;;;;0.40;0.20;;;;;;;15.31;95.54;99579.41;4963370;28;20454;-53
2021/07/31 03:12:19;;;;;;;0.40;0.20;;;;;;;15.32;95.32;99580.25;4962524;28;20502;-54
2021/07/31 03:14:46;;;;;;;0.40;0.30;;;;;;;15.28;96.05;99581.41;4975722;28;20455;-54
2021/07/31 03:17:13;;;;;;;0.40;0.20;;;;;;;15.43;95.07;99579.63;4975344;28;20537;-54
2021/07/31 03:19:39;;;;;;;0.50;0.30;;;;;;;15.37;94.45;99584.41;4975315;28;20451;-54
2021/07/31 03:22:06;;;;;;;0.40;0.20;;;;;;;15.19;95.27;99582.81;4975242;28;20936;-54
2021/07/31 03:24:34;;;;;;;0.40;0.20;;;;;;;15.25;94.91;99585.13;4975342;28;20948;-53
2021/07/31 03:27:01;;;;;;;0.40;0.20;;;;;;;15.21;95.30;99591.59;4972138;28;20479;-54
2021/07/31 03:29:27;;;;;;;0.40;0.20;;;;;;;15.14;94.87;99589.41;4975299;28;20504;-53
2021/07/31 03:31:54;;;;;;;0.50;0.50;;;;;;;15.28;94.41;99592.13;4974948;28;20498;-53
2021/07/31 03:34:23;;;;;;;0.40;0.20;;;;;;;15.32;93.70;99593.66;4975112;28;20885;-55
2021/07/31 03:36:54;;;;;;;0.40;0.20;;;;;;;15.24;94.32;99598.63;4976679;28;20490;-55
2021/07/31 03:39:22;;;;;;;0.40;0.20;;;;;;;15.28;94.15;99595.66;4974885;28;20462;-55
2021/07/31 03:41:50;;;;;;;0.40;0.20;;;;;;;15.19;93.76;99595.34;4976782;28;20507;-54
2021/07/31 03:44:17;;;;;;;0.40;0.30;;;;;;;15.32;93.57;99596.34;4975561;28;20454;-55
2021/07/31 03:46:45;;;;;;;0.40;0.20;;;;;;;15.23;93.97;99602.25;4974803;28;20470;-55
2021/07/31 03:49:13;;;;;;;0.40;0.20;;;;;;;15.27;94.00;99603.78;4975287;28;20458;-54
2021/07/31 03:51:40;;;;;;;0.40;0.20;;;;;;;15.21;93.89;99598.78;4974597;28;20513;-54
2021/07/31 03:54:06;;;;;;;0.40;0.20;;;;;;;15.23;94.31;99608.47;4964458;28;20506;-54
2021/07/31 03:56:33;;;;;;;0.40;0.20;;;;;;;15.28;93.94;99608.19;4969791;28;20474;-53
2021/07/31 03:59:00;;;;;;;1.03;0.93;;;;;;;15.13;94.50;99614.44;4975343;28;20454;-54
2021/07/31 04:01:27;;;;;;;0.40;0.20;;;;;;;15.13;94.25;99620.66;4973549;28;20450;-54
2021/07/31 04:03:54;;;;;;;0.40;0.20;;;;;;;15.09;94.32;99619.97;4974949;28;20863;-54
2021/07/31 04:06:21;;;;;;;0.40;0.20;;;;;;;15.18;94.05;99610.53;4964632;28;20459;-54
2021/07/31 04:08:48;;;;;;;0.40;0.20;;;;;;;15.50;93.09;99615.81;4974865;28;20459;-54
2021/07/31 04:11:15;;;;;;;0.40;0.20;;;;;;;15.71;92.50;99614.56;4974414;28;20482;-54
2021/07/31 04:13:41;;;;;;;0.40;0.20;;;;;;;15.99;91.00;99622.63;4965848;28;20502;-54
2021/07/31 04:16:08;;;;;;;0.40;0.20;;;;;;;16.08;90.80;99623.03;4971887;28;20458;-54
2021/07/31 04:18:35;;;;;;;0.40;0.20;;;;;;;16.22;89.96;99623.03;4974448;28;20536;-54
2021/07/31 04:21:07;;;;;;;0.40;0.20;;;;;;;16.42;89.24;99633.38;4968966;28;20455;-54
2021/07/31 04:23:35;;;;;;;0.40;0.20;;;;;;;16.38;88.85;99629.16;4974411;28;20454;-54
2021/07/31 04:26:16;;;;;;;0.40;0.20;;;;;;;16.34;89.82;99622.28;4948721;28;20482;-54
2021/07/31 04:28:44;;;;;;;0.40;0.30;;;;;;;16.30;90.01;99620.72;4974407;28;20482;-54
2021/07/31 04:31:15;;;;;;;0.40;0.20;;;;;;;16.41;89.19;99628.97;4974412;28;20552;-54
2021/07/31 04:33:43;;;;;;;0.40;0.20;;;;;;;16.43;89.03;99626.16;4970647;28;20454;-54
2021/07/31 04:36:11;;;;;;;0.40;0.20;;;;;;;16.51;89.07;99629.25;4974292;28;20454;-54
2021/07/31 04:38:38;;;;;;;0.40;0.20;;;;;;;16.53;88.73;99633.56;4973883;28;20544;-54
2021/07/31 04:41:06;;;;;;;0.40;0.20;;;;;;;16.70;87.92;99627.13;4973172;28;20462;-54
2021/07/31 04:43:34;;;;;;;0.40;0.30;;;;;;;16.73;87.95;99624.28;4973997;28;20454;-54
2021/07/31 04:46:01;;;;;;;0.40;0.20;;;;;;;16.72;88.15;99621.66;4974118;28;20450;-54
2021/07/31 04:48:28;;;;;;;0.40;0.20;;;;;;;16.69;88.20;99625.41;4968475;28;20562;-54
2021/07/31 04:51:04;;;;;;;0.40;0.20;;;;;;;16.75;87.89;99626.84;4954015;29;20471;-54
2021/07/31 04:53:31;;;;;;;0.40;0.20;;;;;;;16.97;87.13;99618.25;4968438;28;20463;-54
2021/07/31 04:55:58;;;;;;;0.40;0.20;;;;;;;17.79;83.55;99619.91;4965037;28;20455;-53
2021/07/31 04:58:25;;;;;;;0.40;0.20;;;;;;;18.91;79.25;99621.75;4973604;28;20474;-54
2021/07/31 05:00:54;;;;;;;0.40;0.20;;;;;;;19.32;76.09;99623.19;4973694;28;20502;-54
2021/07/31 05:03:22;;;;;;;0.40;0.20;;;;;;;19.95;73.43;99616.56;4949716;28;20562;-54
2021/07/31 05:05:48;;;;;;;0.40;0.20;;;;;;;20.17;72.17;99624.72;4962052;28;20474;-55
2021/07/31 05:08:15;;;;;;;0.40;0.20;;;;;;;20.47;70.81;99621.44;4974077;28;20498;-55
2021/07/31 05:10:44;;;;;;;0.40;0.20;;;;;;;20.58;70.70;99617.88;4970920;28;20467;-55
2021/07/31 05:13:11;;;;;;;0.40;0.20;;;;;;;20.62;69.69;99617.50;4973898;28;20978;-55
2021/07/31 05:15:39;;;;;;;0.40;0.20;;;;;;;20.91;68.62;99628.63;4968982;28;20455;-55
2021/07/31 05:18:07;;;;;;;0.40;0.20;;;;;;;20.96;68.77;99618.28;4967107;28;20498;-55
2021/07/31 05:20:38;;;;;;;0.40;0.20;;;;;;;21.04;67.75;99633.03;4961859;28;20459;-55
2021/07/31 05:23:04;;;;;;;0.50;0.50;;;;;;;20.96;67.72;99637.19;4960822;28;20448;-55
2021/07/31 05:25:31;;;;;;;0.40;0.20;;;;;;;20.94;68.13;99639.19;4953730;28;20892;-55
2021/07/31 05:27:58;;;;;;;0.40;0.20;;;;;;;21.06;68.06;99648.13;4958645;28;20608;-55
2021/07/31 05:30:25;;;;;;;0.40;0.20;;;;;;;21.23;67.28;99653.00;4959419;28;20839;-55
2021/07/31 05:32:51;;;;;;;0.40;0.20;;;;;;;21.47;66.71;99646.56;4964702;28;20850;-55
2021/07/31 05:35:18;;;;;;;0.40;0.20;;;;;;;21.42;67.08;99651.50;4973897;28;20459;-55
2021/07/31 05:37:45;;;;;;;0.40;0.20;;;;;;;21.64;66.49;99648.69;4973697;28;20506;-55
2021/07/31 05:40:12;;;;;;;0.40;0.20;;;;;;;21.64;65.93;99645.13;4973565;28;20454;-56
2021/07/31 05:42:40;;;;;;;0.40;0.20;;;;;;;21.63;65.52;99659.66;4973596;28;20454;-56
2021/07/31 05:45:07;;;;;;;0.40;0.20;;;;;;;21.51;66.24;99658.81;4973603;28;20451;-56
2021/07/31 05:47:35;;;;;;;0.40;0.20;;;;;;;21.70;65.71;99655.44;4973551;28;20470;-56
2021/07/31 05:50:07;;;;;;;0.40;0.20;;;;;;;21.90;65.29;99654.59;4960802;28;20937;-56
2021/07/31 05:52:34;;;;;;;0.40;0.30;;;;;;;22.05;64.19;99647.88;4965155;28;20490;-55
2021/07/31 05:55:02;;;;;;;0.40;0.20;;;;;;;21.89;64.95;99653.75;4973104;28;20507;-55
2021/07/31 05:57:29;;;;;;;0.40;0.20;;;;;;;22.22;64.62;99648.31;4964296;28;20558;-56
2021/07/31 05:59:57;;;;;;;0.60;0.60;;;;;;;22.62;61.65;99653.78;4972718;28;20509;-56
2021/07/31 06:02:23;;;;;;;0.40;0.20;;;;;;;21.83;64.36;99659.69;4961533;28;20450;-56
2021/07/31 06:04:50;;;;;;;0.40;0.30;;;;;;;22.05;64.09;99649.72;4973608;28;20458;-56
2021/07/31 06:07:17;;;;;;;0.40;0.30;;;;;;;22.23;62.93;99650.88;4973394;28;20475;-56
2021/07/31 06:09:53;;;;;;;0.40;0.20;;;;;;;22.16;63.87;99652.38;4968486;28;20489;-56
2021/07/31 06:12:21;;;;;;;0.40;0.20;;;;;;;21.93;63.20;99657.06;4976815;28;20524;-55
2021/07/31 06:14:49;;;;;;;0.50;0.47;;;;;;;22.00;63.46;99658.22;4976737;28;20956;-56
2021/07/31 06:17:15;;;;;;;0.40;0.20;;;;;;;22.00;63.53;99657.38;4975593;28;20470;-56
2021/07/31 06:19:42;;;;;;;0.40;0.30;;;;;;;21.97;63.57;99658.50;4974223;28;20454;-56
2021/07/31 06:22:09;;;;;;;0.40;0.20;;;;;;;21.91;63.59;99652.75;4977105;28;20505;-56
2021/07/31 06:24:36;;;;;;;0.40;0.20;;;;;;;22.18;62.97;99653.97;4976561;28;20457;-56
2021/07/31 06:27:04;;;;;;;0.40;0.20;;;;;;;21.85;63.25;99665.81;4976482;28;20470;-56
2021/07/31 06:29:32;;;;;;;0.40;0.20;;;;;;;21.64;63.85;99662.22;4974035;28;20454;-55
2021/07/31 06:31:58;;;;;;;0.40;0.20;;;;;;;21.88;63.28;99659.28;4971691;28;20493;-56
2021/07/31 06:34:26;;;;;;;0.40;0.20;;;;;;;21.63;64.48;99662.34;4972658;28;20831;-55
2021/07/31 06:36:53;;;;;;;0.50;0.30;;;;;;;21.66;64.65;99659.41;4972149;28;20489;-56
2021/07/31 06:39:19;;;;;;;0.40;0.20;;;;;;;21.76;63.58;99658.47;4976892;28;20485;-55
2021/07/31 06:41:46;;;;;;;0.40;0.20;;;;;;;21.69;65.07;99657.31;4976598;28;20525;-56
2021/07/31 06:44:13;;;;;;;0.40;0.20;;;;;;;21.64;64.50;99656.81;4967652;28;20815;-56
2021/07/31 06:46:39;;;;;;;0.40;0.20;;;;;;;21.82;64.46;99662.53;4972543;28;20478;-56
2021/07/31 06:49:06;;;;;;;0.40;0.20;;;;;;;22.01;63.30;99654.53;4970918;28;20455;-56
2021/07/31 06:51:33;;;;;;;0.40;0.20;;;;;;;21.71;64.11;99655.31;4959691;28;20544;-56
2021/07/31 06:54:03;;;;;;;0.40;0.20;;;;;;;21.77;64.12;99654.78;4974907;28;20454;-56
2021/07/31 06:56:32;;;;;;;0.40;0.20;;;;;;;21.84;62.33;99656.00;4972923;28;20466;-56
2021/07/31 06:58:59;;;;;;;0.40;0.20;;;;;;;21.82;63.78;99651.69;4976240;28;20459;-56
2021/07/31 07:01:26;;;;;;;0.40;0.20;;;;;;;21.84;64.57;99657.84;4975735;28;20453;-56
2021/07/31 07:03:53;;;;;;;0.40;0.30;;;;;;;21.78;63.85;99658.34;4970223;28;20486;-56
2021/07/31 07:06:20;;;;;;;0.50;0.43;;;;;;;21.76;63.76;99657.63;4975423;28;20819;-56
2021/07/31 07:08:47;;;;;;;0.40;0.20;;;;;;;21.36;64.94;99658.28;4975513;28;20462;-56
2021/07/31 07:11:16;;;;;;;0.40;0.20;;;;;;;21.18;64.94;99654.38;4975858;28;20529;-56
2021/07/31 07:13:43;;;;;;;0.40;0.20;;;;;;;21.43;64.65;99659.50;4974365;28;20510;-56
2021/07/31 07:16:09;;;;;;;0.40;0.20;;;;;;;21.35;65.35;99659.25;4960648;28;20525;-56
2021/07/31 07:18:36;;;;;;;0.40;0.20;;;;;;;21.65;64.41;99661.22;4950508;28;20540;-56
2021/07/31 07:21:07;;;;;;;0.77;0.77;;;;;;;21.94;62.83;99660.63;4960763;28;20504;-56
2021/07/31 07:23:35;;;;;;;0.40;0.20;;;;;;;21.92;62.86;99662.56;4968074;28;20511;-56
2021/07/31 07:26:03;;;;;;;1.07;1.07;;;;;;;21.90;62.75;99651.88;4962587;28;20886;-56
2021/07/31 07:28:29;;;;;;;0.40;0.20;;;;;;;22.12;63.31;99657.22;4955398;28;20483;-56
2021/07/31 07:31:01;;;;;;;0.40;0.20;;;;;;;22.27;63.52;99655.03;4953346;28;20833;-56
2021/07/31 07:33:28;;;;;;;0.70;0.70;;;;;;;22.37;62.83;99653.22;4941230;28;20519;-56
2021/07/31 07:35:54;;;;;;;0.40;0.30;;;;;;;22.42;63.06;99656.38;4974955;28;20505;-55
2021/07/31 07:38:21;;;;;;;0.60;0.40;;;;;;;22.56;61.09;99657.88;4963946;28;20829;-56
2021/07/31 07:40:48;;;;;;;0.40;0.30;;;;;;;22.45;62.21;99650.69;4954041;28;20466;-53
2021/07/31 07:43:14;;;;;;;0.40;0.20;;;;;;;22.54;61.39;99651.75;4970645;28;20459;-53
2021/07/31 07:45:41;;;;;;;0.40;0.20;;;;;;;22.74;60.11;99656.22;4970014;28;21033;-54
2021/07/31 07:48:08;;;;;;;0.40;0.20;;;;;;;22.55;60.59;99648.03;4969809;28;20506;-53
2021/07/31 07:50:35;;;;;;;0.40;0.20;;;;;;;22.39;60.82;99653.94;4957562;28;20845;-53
2021/07/31 07:53:01;;;;;;;0.40;0.20;;;;;;;22.82;60.32;99654.69;4970998;28;20490;-53
2021/07/31 07:55:28;;;;;;;0.40;0.27;;;;;;;22.94;59.71;99662.63;4968967;28;20462;-53
2021/07/31 07:57:54;;;;;;;0.40;0.20;;;;;;;22.87;59.95;99653.31;4973032;28;20471;-54
2021/07/31 08:00:21;;;;;;;0.73;0.73;;;;;;;23.34;58.28;99656.28;4967831;28;20455;-54
2021/07/31 08:02:47;;;;;;;0.40;0.20;;;;;;;23.22;58.04;99641.13;4974270;28;20450;-53
2021/07/31 08:05:15;;;;;;;0.40;0.30;;;;;;;23.42;57.71;99652.84;4969391;28;20462;-54
2021/07/31 08:07:44;;;;;;;0.40;0.30;;;;;;;23.38;57.58;99648.72;4972630;28;20482;-54
2021/07/31 08:10:12;;;;;;;0.40;0.30;;;;;;;23.30;58.69;99650.28;4954914;28;21043;-53
2021/07/31 08:12:39;;;;;;;0.40;0.20;;;;;;;23.48;57.36;99655.88;4962240;28;20490;-53
2021/07/31 08:15:06;;;;;;;0.40;0.20;;;;;;;23.33;56.78;99655.44;4964846;28;20952;-55
2021/07/31 08:17:33;;;;;;;0.40;0.30;;;;;;;23.56;57.56;99644.28;4973505;28;20482;-54
2021/07/31 08:20:01;;;;;;;11.73;1.60;;;;;;;23.60;56.23;99645.78;4948943;28;20469;-54
2021/07/31 08:22:27;;;;;;;0.40;0.23;;;;;;;23.55;56.92;99657.00;4965328;28;20489;-53
2021/07/31 08:24:54;;;;;;;0.40;0.20;;;;;;;23.77;56.33;99655.06;4973770;28;20458;-53
2021/07/31 08:27:21;;;;;;;0.40;0.20;;;;;;;23.71;55.31;99644.75;4974873;28;20533;-54
2021/07/31 08:29:48;;;;;;;0.40;0.20;;;;;;;24.10;56.74;99660.00;4974737;28;20501;-53
2021/07/31 08:32:15;;;;;;;0.40;0.30;;;;;;;23.82;55.79;99655.47;4956546;28;20515;-53
2021/07/31 08:34:41;;;;;;;0.40;0.30;;;;;;;23.84;56.68;99653.47;4940207;28;20476;-53
2021/07/31 08:37:09;;;;;;;0.40;0.20;;;;;;;23.87;56.68;99654.06;4950909;28;20485;-54
2021/07/31 08:39:37;;;;;;;0.50;0.30;;;;;;;23.46;57.10;99657.03;4957128;28;20947;-53
2021/07/31 08:42:05;;;;;;;0.50;0.30;;;;;;;23.56;57.26;99647.88;4953917;28;20502;-54
2021/07/31 08:44:35;;;;;;;0.40;0.20;;;;;;;23.45;58.04;99647.16;4946218;28;20522;-54
2021/07/31 08:47:04;;;;;;;0.50;0.30;;;;;;;23.04;57.94;99660.81;4966788;28;20475;-54
2021/07/31 08:49:36;;;;;;;4.60;0.63;;;;;;;23.33;58.24;99660.00;4958961;28;20510;-53
2021/07/31 08:52:05;;;;;;;0.50;0.50;;;;;;;22.99;58.75;99657.63;4959751;28;20454;-54
2021/07/31 08:54:32;;;;;;;0.40;0.20;;;;;;;23.29;58.91;99650.41;4961668;28;20461;-53
2021/07/31 08:56:58;;;;;;;2.00;1.80;;;;;;;23.55;56.63;99653.44;4957447;28;20517;-53
2021/07/31 08:59:26;;;;;;;0.40;0.20;;;;;;;23.78;56.22;99648.63;4949266;28;20455;-52
2021/07/31 09:01:53;;;;;;;1.33;1.23;;;;;;;23.98;55.39;99638.59;4969896;28;20869;-53
2021/07/31 09:04:22;;;;;;;0.40;0.20;;;;;;;23.75;55.31;99651.63;4954675;28;20489;-52
2021/07/31 09:06:49;;;;;;;0.50;0.33;;;;;;;23.72;54.84;99651.94;4964772;28;20537;-53
2021/07/31 09:09:27;;;;;;;0.50;0.40;;;;;;;23.87;54.43;99645.91;4956054;28;20455;-53
2021/07/31 09:12:08;;;;;;;0.40;0.30;;;;;;;23.78;52.26;99638.63;4958696;28;20455;-53
2021/07/31 09:14:43;;;;;;;0.40;0.20;;;;;;;24.05;52.77;99651.44;4953444;28;20881;-53
2021/07/31 09:17:26;;;;;;;0.60;0.60;;;;;;;24.01;53.05;99644.59;4961212;28;20541;-54
2021/07/31 09:19:54;;;;;;;0.40;0.30;;;;;;;24.37;52.65;99651.13;4963061;28;20459;-54
2021/07/31 09:22:21;;;;;;;0.40;0.20;;;;;;;23.51;52.42;99657.44;4956621;28;20991;-53
2021/07/31 09:25:07;;;;;;;0.40;0.20;;;;;;;23.62;52.84;99647.34;4954668;28;20505;-53
2021/07/31 09:27:34;;;;;;;0.40;0.20;;;;;;;24.04;52.73;99652.44;4958516;28;20449;-53
2021/07/31 09:30:03;;;;;;;0.50;0.50;;;;;;;24.38;51.58;99651.97;4957976;28;20941;-53
2021/07/31 09:32:41;;;;;;;0.40;0.20;;;;;;;24.09;50.95;99643.84;4955048;28;20542;-53
2021/07/31 09:35:23;;;;;;;0.50;0.40;;;;;;;24.21;52.35;99646.25;4972743;28;20450;-54
2021/07/31 09:37:53;;;;;;;0.40;0.20;;;;;;;24.56;51.36;99644.78;4968097;28;20487;-53
2021/07/31 09:40:29;;;;;;;0.40;0.20;;;;;;;24.66;50.62;99639.28;4954890;28;20525;-54
2021/07/31 09:42:56;;;;;;;13.33;2.93;;;;;;;24.76;49.96;99656.41;4953866;28;20459;-53
2021/07/31 09:45:32;;;;;;;0.40;0.30;;;;;;;24.65;50.92;99649.28;4964352;28;20510;-52
2021/07/31 09:48:04;;;;;;;0.40;0.20;;;;;;;24.89;50.63;99651.47;4970353;28;21065;-53
2021/07/31 09:50:40;;;;;;;0.40;0.30;;;;;;;25.23;50.65;99649.03;4960772;28;20521;-54
2021/07/31 09:53:12;;;;;;;0.40;0.30;;;;;;;25.14;49.99;99652.66;4970070;28;20541;-53
2021/07/31 09:55:49;;;;;;;0.40;0.30;;;;;;;24.83;50.42;99645.81;4965970;28;20553;-55
2021/07/31 09:58:18;;;;;;;0.50;0.33;;;;;;;24.76;49.58;99648.25;4973560;28;20474;-54
2021/07/31 10:00:48;;;;;;;0.60;0.60;;;;;;;24.65;50.86;99659.31;4977088;28;20512;-54
2021/07/31 10:03:15;;;;;;;0.47;0.33;;;;;;;24.63;50.39;99639.59;4965982;28;20456;-54
2021/07/31 10:05:43;;;;;;;0.47;0.30;;;;;;;24.89;52.29;99643.31;4957921;28;20437;-54
2021/07/31 10:08:29;;;;;;;0.40;0.30;;;;;;;24.61;51.19;99644.31;4965849;28;20536;-54
2021/07/31 10:10:57;;;;;;;0.40;0.30;;;;;;;24.44;50.75;99644.09;4969958;28;20826;-53
2021/07/31 10:13:24;;;;;;;0.83;0.83;;;;;;;24.75;50.97;99635.66;4972631;28;20494;-54
2021/07/31 10:15:51;;;;;;;0.50;0.40;;;;;;;24.88;50.81;99638.91;4969589;28;20429;-54
2021/07/31 10:18:19;;;;;;;0.50;0.40;;;;;;;24.91;50.61;99640.44;4972170;28;20490;-54
2021/07/31 10:20:46;;;;;;;0.40;0.30;;;;;;;24.81;50.98;99637.81;4956396;28;20441;-54
2021/07/31 10:23:12;;;;;;;1.33;1.23;;;;;;;24.72;50.82;99642.25;4953832;28;20438;-53
2021/07/31 10:26:10;;;;;;;0.40;0.30;;;;;;;24.89;50.39;99640.59;4968944;28;20478;-53
2021/07/31 10:28:37;;;;;;;0.40;0.27;;;;;;;24.85;50.52;99650.09;4949670;28;20500;-54
2021/07/31 10:31:32;;;;;;;0.50;0.40;;;;;;;25.04;50.79;99652.72;4965100;28;20515;-54
2021/07/31 10:34:00;;;;;;;0.50;0.40;;;;;;;25.02;50.31;99640.28;4976063;28;21003;-54
2021/07/31 10:36:32;;;;;;;0.40;0.20;;;;;;;24.97;50.05;99646.16;4976295;28;20533;-53
2021/07/31 10:39:01;;;;;;;0.40;0.20;;;;;;;24.81;49.63;99641.38;4949891;28;20487;-53
2021/07/31 10:41:53;;;;;;;0.40;0.20;;;;;;;24.95;51.18;99640.00;4962407;28;20784;-54
2021/07/31 10:44:20;;;;;;;0.40;0.23;;;;;;;24.92;50.85;99643.00;4973908;28;21022;-53
2021/07/31 10:46:46;;;;;;;0.40;0.20;;;;;;;25.16;50.91;99641.63;4959789;28;20452;-55
2021/07/31 10:49:35;;;;;;;0.60;0.40;;;;;;;24.98;49.93;99644.28;4957090;28;20434;-53
2021/07/31 10:52:02;;;;;;;0.40;0.30;;;;;;;24.70;50.67;99633.41;4963401;28;20446;-54
2021/07/31 10:55:01;;;;;;;0.50;0.40;;;;;;;24.97;50.99;99629.84;4963352;28;20502;-54
2021/07/31 10:58:10;;;;;;;0.40;0.30;;;;;;;24.96;50.95;99633.56;4958610;28;20846;-54
2021/07/31 11:00:42;;;;;;;0.40;0.23;;;;;;;24.99;50.07;99629.69;4916635;29;20465;-53
2021/07/31 11:03:15;;;;;;;0.43;0.30;;;;;;;25.49;49.94;99621.91;4916487;29;20453;-54
2021/07/31 11:05:48;;;;;;;0.50;0.40;;;;;;;25.58;49.14;99626.41;4944108;28;20460;-54
2021/07/31 11:08:21;;;;;;;0.50;0.40;;;;;;;25.05;49.20;99624.50;4943675;29;20526;-54
2021/07/31 11:10:54;;;;;;;0.50;0.33;;;;;;;25.48;48.57;99622.91;4971884;28;20451;-52
2021/07/31 11:13:21;;;;;;;0.50;0.30;;;;;;;25.50;49.12;99622.78;4966237;28;20461;-52
2021/07/31 11:15:58;;;;;;;0.40;0.30;;;;;;;25.68;48.49;99632.66;4964752;28;20534;-53
2021/07/31 11:18:47;;;;;;;0.40;0.20;;;;;;;25.80;48.77;99624.25;4969856;28;20470;-52
2021/07/31 11:21:21;;;;;;;0.50;0.30;;;;;;;25.64;48.11;99633.13;4969311;28;20447;-53
2021/07/31 11:23:50;;;;;;;0.40;0.20;;;;;;;25.38;48.68;99627.59;4970047;28;20940;-54
2021/07/31 11:26:32;;;;;;;0.40;0.30;;;;;;;24.85;48.59;99633.75;4960224;28;20522;-53
2021/07/31 11:29:00;;;;;;;0.40;0.20;;;;;;;25.57;49.85;99645.63;4973063;28;20522;-53
2021/07/31 11:31:27;;;;;;;0.50;0.50;;;;;;;25.51;48.47;99644.41;4972653;28;20829;-53
2021/07/31 11:34:08;;;;;;;0.50;0.40;;;;;;;25.57;48.87;99642.91;4961049;28;20493;-52
2021/07/31 11:36:39;;;;;;;0.83;0.83;;;;;;;25.60;48.84;99632.56;4966447;28;20526;-53
2021/07/31 11:39:07;;;;;;;1.13;1.13;;;;;;;25.74;49.83;99641.22;4975412;28;20425;-54
2021/07/31 11:41:42;;;;;;;0.40;0.20;;;;;;;25.24;48.74;99641.72;4968884;28;20487;-53